Portada
METAR-TAF:

METAR-TAF

Aeroports :

Aeroport Internacional de Hong Kong

Hong Kong, Xina

latitud: 22-19N, longitud: 113-55E, altitud: 9 m

Observació

L'informe es va fer fa 30 minuts, a les 01:30 UTC
Vent 10 kt del Nord, variant entre Nord i Nord-Est
Temperatura 11°C
Humitat 58%
Pressió 1020 hPa
Visibilitat 10 km o més
Escasses núvols a una alçada de 3500 ft
Núvols disperses a una alçada de 4500 ft

METAR: VHHH 280130Z 01010KT 350V050 9999 FEW035 SCT045 11/03 Q1020 NOSIG

Hora: 10:00 (02:00 UTC)

Pronòstic

L'informe es va fer fa 3 hores i 0 minuts, a les 23:00 UTC
Pronòstic vàlid del 28 a les 00 UTC al 29 a les 06 UTC
Vent 10 kt del Nord/Nord-Est
Visibilitat 10 km o més
Escasses núvols a una alçada de 3000 ft
Temporalment
l' 28 a les 04 UTC al 28 a les 10 UTC
Vent 10 kt del Nord/Nord-Oest

TAF: VHHH 272300Z 2800/2906 03010KT 9999 FEW030 TX16/2806Z TX17/2906Z TN10/2823Z TEMPO 2804/2810 33010KT

Observacions i pronòstics meteorològics de més de 4000 aeroports (METAR i TAF).

Les estacions disponibles són els punts grocs i vermells al mapa.

Posi el ratolí al punt desitjat per veure el nom de l'estació.

Feu clic per veure les observacions i els pronòstics meteorològics.

Per canviar el mapa: feu clic els botons verds amb una creu de color negre per apropar; al botó verd amb un guió per allunyar la imatge; o en les fletxes verdes per a mapes adjacents.


METAR-TAF: